Time;durP1;ratioP1;P1;durP2;ratioP2;P2;SDS_P1;SDS_P2;PMS_P1;PMS_P2;Temp;Humidity;BMP_temperature;BMP_pressure;BME280_temperature;BME280_humidity;BME280_pressure;Samples;Min_cycle;Max_cycle;Signal;HPM_P1;HPM_P2
2022/09/13 00:00:42;;;;;;;4.88;2.35;;;;;;;8.76;100.00;92829.13;2140327;27;20413;-72
2022/09/13 00:01:43;;;;;;;3.42;2.90;;;;;;;8.77;100.00;92822.63;2138933;27;20027;-72
2022/09/13 00:02:44;;;;;;;5.00;2.60;;;;;;;8.77;100.00;92817.31;2131604;27;20039;-72
2022/09/13 00:03:45;;;;;;;3.78;2.60;;;;;;;8.79;100.00;92820.31;2131860;27;20033;-73
2022/09/13 00:04:45;;;;;;;4.97;2.58;;;;;;;8.80;100.00;92819.91;2131451;27;20064;-72
2022/09/13 00:05:47;;;;;;;3.35;2.47;;;;;;;8.75;100.00;92822.31;2131570;27;20058;-73
2022/09/13 00:06:48;;;;;;;7.13;2.63;;;;;;;8.77;100.00;92815.38;2131389;27;20096;-72
2022/09/13 00:07:49;;;;;;;5.53;3.10;;;;;;;8.78;100.00;92816.13;2130913;27;20019;-72
2022/09/13 00:08:50;;;;;;;3.58;2.60;;;;;;;8.86;100.00;92816.75;2131620;27;20037;-73
2022/09/13 00:09:51;;;;;;;6.47;2.90;;;;;;;8.86;100.00;92809.50;2131548;27;20310;-73
2022/09/13 00:10:52;;;;;;;6.18;2.65;;;;;;;8.83;100.00;92811.09;2131487;27;20026;-73
2022/09/13 00:11:52;;;;;;;5.00;2.60;;;;;;;8.78;100.00;92816.13;2131271;27;20030;-72
2022/09/13 00:12:54;;;;;;;12.40;2.92;;;;;;;8.76;100.00;92813.16;2138114;27;20026;-72
2022/09/13 00:13:55;;;;;;;3.35;2.88;;;;;;;8.68;100.00;92812.53;2140090;27;20026;-72
2022/09/13 00:14:56;;;;;;;5.65;2.70;;;;;;;8.61;100.00;92817.25;2140064;27;20106;-73
2022/09/13 00:15:59;;;;;;;6.03;3.50;;;;;;;8.66;100.00;92808.78;2139946;27;20090;-71
2022/09/13 00:17:00;;;;;;;5.78;2.90;;;;;;;8.64;100.00;92811.09;2139346;27;20022;-72
2022/09/13 00:18:02;;;;;;;3.65;2.90;;;;;;;8.60;100.00;92811.16;2133984;27;20029;-73
2022/09/13 00:19:03;;;;;;;7.38;2.85;;;;;;;8.50;100.00;92812.88;2131343;27;20117;-72
2022/09/13 00:20:05;;;;;;;6.38;2.60;;;;;;;8.60;100.00;92811.16;2131365;27;20054;-72
2022/09/13 00:21:11;;;;;;;9.68;3.17;;;;;;;8.54;100.00;92807.47;2131420;27;20026;-72
2022/09/13 00:22:12;;;;;;;5.68;2.92;;;;;;;8.56;100.00;92807.84;2131514;27;20514;-71
2022/09/13 00:23:13;;;;;;;4.60;3.20;;;;;;;8.60;100.00;92797.09;2132958;27;20023;-73
2022/09/13 00:24:14;;;;;;;5.68;2.70;;;;;;;8.55;100.00;92804.41;2140028;27;20042;-73
2022/09/13 00:25:15;;;;;;;4.47;2.90;;;;;;;8.59;100.00;92801.66;2140141;27;20025;-73
2022/09/13 00:26:22;;;;;;;4.70;2.75;;;;;;;8.58;100.00;92802.84;2130182;27;20031;-73
2022/09/13 00:27:23;;;;;;;4.97;2.90;;;;;;;8.66;100.00;92808.78;2132012;27;20141;-72
2022/09/13 00:28:24;;;;;;;5.97;2.40;;;;;;;8.65;100.00;92796.59;2137229;27;20360;-72
2022/09/13 00:29:26;;;;;;;3.17;2.55;;;;;;;8.63;100.00;92799.69;2131495;27;20019;-72
2022/09/13 00:30:27;;;;;;;3.90;2.70;;;;;;;8.62;100.00;92798.19;2131546;27;20415;-72
2022/09/13 00:31:28;;;;;;;6.72;2.90;;;;;;;8.60;100.00;92803.16;2131281;27;20019;-72
2022/09/13 00:32:29;;;;;;;3.97;2.80;;;;;;;8.58;100.00;92802.84;2122229;27;20433;-71
2022/09/13 00:33:30;;;;;;;6.85;3.17;;;;;;;8.60;100.00;92797.84;2121913;27;20027;-72
2022/09/13 00:34:31;;;;;;;4.30;2.90;;;;;;;8.54;100.00;92802.16;2130937;27;20026;-73
2022/09/13 00:35:34;;;;;;;4.25;3.10;;;;;;;8.44;100.00;92795.13;2131593;27;20022;-73
2022/09/13 00:36:35;;;;;;;4.47;2.80;;;;;;;8.44;100.00;92803.88;2131093;27;20037;-71
2022/09/13 00:37:36;;;;;;;4.45;2.42;;;;;;;8.41;100.00;92799.34;2131201;27;20026;-73
2022/09/13 00:38:39;;;;;;;4.28;2.40;;;;;;;8.47;100.00;92800.38;2130940;27;20029;-72
2022/09/13 00:39:39;;;;;;;4.25;2.58;;;;;;;8.40;100.00;92805.09;2131087;27;20026;-71
2022/09/13 00:40:40;;;;;;;4.43;2.47;;;;;;;8.42;100.00;92794.75;2131307;27;20048;-71
2022/09/13 00:41:41;;;;;;;3.75;2.92;;;;;;;8.47;100.00;92796.94;2122393;27;20529;-73
2022/09/13 00:42:42;;;;;;;5.28;2.65;;;;;;;8.46;100.00;92790.88;2122249;27;20046;-71
2022/09/13 00:43:51;;;;;;;3.63;2.75;;;;;;;8.42;100.00;92797.44;2131347;27;20054;-71
2022/09/13 00:45:01;;;;;;;5.32;3.08;;;;;;;8.41;100.00;92796.69;2130947;27;20026;-73
2022/09/13 00:46:03;;;;;;;5.10;3.10;;;;;;;8.29;100.00;92792.69;2131576;27;20027;-71
2022/09/13 00:47:04;;;;;;;7.32;3.10;;;;;;;8.35;100.00;92792.97;2131538;27;20061;-71
2022/09/13 00:48:09;;;;;;;4.50;3.15;;;;;;;8.39;100.00;92799.00;2131136;27;20022;-73
2022/09/13 00:49:20;;;;;;;5.40;3.13;;;;;;;8.39;100.00;92788.38;2132683;27;20027;-71
2022/09/13 00:50:30;;;;;;;8.15;3.30;;;;;;;8.28;100.00;92785.84;2139611;27;20034;-71
2022/09/13 00:51:31;;;;;;;6.55;3.47;;;;;;;8.33;100.00;92792.63;2139889;27;20443;-73
2022/09/13 00:52:35;;;;;;;6.70;3.17;;;;;;;8.26;100.00;92793.50;2130763;27;20034;-71
2022/09/13 00:53:40;;;;;;;6.45;3.28;;;;;;;8.28;100.00;92785.09;2130804;27;20022;-71
2022/09/13 00:54:54;;;;;;;4.78;2.97;;;;;;;8.30;100.00;92796.13;2134644;27;20027;-72
2022/09/13 00:56:01;;;;;;;4.85;2.75;;;;;;;8.29;100.00;92797.25;2130494;27;20019;-71
2022/09/13 00:57:04;;;;;;;9.32;2.95;;;;;;;8.39;100.00;92796.34;2131247;27;20052;-71
2022/09/13 00:58:12;;;;;;;5.05;3.25;;;;;;;8.31;100.00;92793.03;2131336;27;20114;-71
2022/09/13 00:59:18;;;;;;;5.97;3.15;;;;;;;8.23;100.00;92790.91;2130914;27;20030;-71
2022/09/13 01:00:19;;;;;;;3.80;2.97;;;;;;;8.17;100.00;92795.97;2130812;27;20022;-72
2022/09/13 01:01:26;;;;;;;5.70;2.88;;;;;;;8.20;100.00;92794.38;2131007;27;20019;-71
2022/09/13 01:02:28;;;;;;;4.85;3.15;;;;;;;8.20;100.00;92789.81;2131345;27;20027;-71
2022/09/13 01:03:32;;;;;;;6.22;3.17;;;;;;;8.23;100.00;92798.91;2131267;27;20036;-73
2022/09/13 01:04:35;;;;;;;6.65;3.33;;;;;;;8.16;100.00;92799.00;2130822;27;20023;-73
2022/09/13 01:06:08;;;;;;;12.38;3.40;;;;;;;8.19;100.00;92800.88;2130839;27;20026;-74
2022/09/13 01:07:13;;;;;;;4.55;3.08;;;;;;;8.17;100.00;92795.97;2114948;27;20039;-71
2022/09/13 01:08:21;;;;;;;6.75;3.30;;;;;;;8.31;100.00;92800.28;2131252;27;20027;-71
2022/09/13 01:09:23;;;;;;;4.07;2.70;;;;;;;8.24;100.00;92792.41;2131019;27;20030;-74
2022/09/13 01:10:26;;;;;;;4.28;2.72;;;;;;;8.21;100.00;92803.88;2130867;27;20082;-73
2022/09/13 01:11:44;;;;;;;7.63;2.70;;;;;;;8.19;100.00;92788.31;2130809;27;20041;-71
2022/09/13 01:13:10;;;;;;;4.93;3.30;;;;;;;8.17;100.00;92789.88;2131219;27;20125;-71
2022/09/13 01:14:12;;;;;;;5.07;3.15;;;;;;;8.11;100.00;92792.25;2130807;27;20034;-72
2022/09/13 01:15:13;;;;;;;6.18;3.05;;;;;;;8.07;100.00;92796.88;2131877;27;20107;-73
2022/09/13 01:16:14;;;;;;;9.27;3.00;;;;;;;8.10;100.00;92788.09;2132879;27;20110;-71
2022/09/13 01:17:15;;;;;;;9.27;2.92;;;;;;;8.09;100.00;92783.94;2130461;27;20071;-72
2022/09/13 01:18:17;;;;;;;5.88;2.95;;;;;;;8.02;100.00;92792.78;2131218;27;20437;-74
2022/09/13 01:19:18;;;;;;;4.97;2.92;;;;;;;7.96;100.00;92791.00;2130962;27;20026;-71
2022/09/13 01:20:25;;;;;;;12.30;4.25;;;;;;;7.99;100.00;92792.84;2130554;27;20068;-70
2022/09/13 01:21:35;;;;;;;5.22;3.00;;;;;;;7.90;100.00;92784.63;2136952;27;20158;-71
2022/09/13 01:23:08;;;;;;;5.68;2.92;;;;;;;7.93;100.00;92786.50;2139229;27;20094;-71
2022/09/13 01:24:48;;;;;;;5.45;2.78;;;;;;;8.00;100.00;92786.38;2139362;27;20034;-72
2022/09/13 01:26:26;;;;;;;5.18;2.75;;;;;;;8.03;100.00;92785.53;2139542;27;20027;-70
2022/09/13 01:27:47;;;;;;;4.57;2.65;;;;;;;8.02;100.00;92774.16;2138580;27;20829;-72
2022/09/13 01:29:24;;;;;;;4.97;2.55;;;;;;;7.97;100.00;92777.28;2139169;27;20038;-70
2022/09/13 01:30:36;;;;;;;5.60;2.70;;;;;;;7.98;100.00;92778.78;2139392;27;20476;-71
2022/09/13 01:32:02;;;;;;;5.38;2.53;;;;;;;8.02;100.00;92787.47;2134081;27;20370;-70
2022/09/13 01:33:23;;;;;;;7.28;2.67;;;;;;;8.01;100.00;92777.97;2130497;27;20082;-70
2022/09/13 01:34:42;;;;;;;4.22;2.47;;;;;;;8.04;100.00;92776.41;2130787;27;20030;-70
2022/09/13 01:36:21;;;;;;;3.17;2.30;;;;;;;7.97;100.00;92776.53;2121278;27;20020;-70
2022/09/13 01:37:37;;;;;;;3.58;2.47;;;;;;;7.96;100.00;92783.03;2104223;28;20028;-71
2022/09/13 01:38:54;;;;;;;3.03;2.38;;;;;;;8.01;100.00;92785.22;2111339;27;20028;-71
2022/09/13 01:40:27;;;;;;;4.47;2.63;;;;;;;8.03;100.00;92774.91;2130535;27;20539;-71
2022/09/13 01:41:28;;;;;;;2.85;2.55;;;;;;;7.92;100.00;92780.41;2130343;27;20474;-71
2022/09/13 01:42:31;;;;;;;2.47;2.20;;;;;;;7.86;100.00;92773.28;2139558;27;20014;-70
2022/09/13 01:43:44;;;;;;;2.75;2.25;;;;;;;7.91;100.00;92783.50;2139539;27;20022;-71
2022/09/13 01:44:47;;;;;;;2.72;2.10;;;;;;;7.91;100.00;92778.91;2139010;27;20122;-71
2022/09/13 01:46:05;;;;;;;3.10;1.90;;;;;;;7.92;100.00;92774.34;2139450;27;20023;-70
2022/09/13 01:47:26;;;;;;;4.45;2.47;;;;;;;7.94;100.00;92774.69;2135029;27;20341;-70
2022/09/13 01:49:06;;;;;;;3.15;2.42;;;;;;;7.94;100.00;92767.44;2130429;27;20053;-70
2022/09/13 01:50:28;;;;;;;8.18;2.90;;;;;;;7.94;100.00;92774.69;2127821;27;20035;-70
2022/09/13 01:51:38;;;;;;;2.67;2.45;;;;;;;7.93;100.00;92776.59;2130329;27;20033;-70
2022/09/13 01:52:51;;;;;;;3.65;2.60;;;;;;;7.89;100.00;92778.56;2130807;27;20034;-72
2022/09/13 01:54:11;;;;;;;3.53;2.30;;;;;;;7.81;100.00;92774.50;2130685;27;20035;-73
2022/09/13 01:55:18;;;;;;;5.65;2.17;;;;;;;7.81;100.00;92777.94;2130647;27;20037;-70
2022/09/13 01:56:26;;;;;;;5.50;2.80;;;;;;;7.87;100.00;92786.22;2130519;27;20424;-70
2022/09/13 01:57:32;;;;;;;8.35;3.00;;;;;;;7.81;100.00;92782.50;2130439;27;20023;-70
2022/09/13 01:58:57;;;;;;;12.73;3.17;;;;;;;7.77;100.00;92781.81;2130728;27;20606;-71
2022/09/13 02:00:11;;;;;;;3.10;2.38;;;;;;;7.78;100.00;92783.31;2130298;27;20080;-72
2022/09/13 02:01:21;;;;;;;4.38;2.53;;;;;;;7.72;100.00;92783.03;2130445;27;20031;-72
2022/09/13 02:02:40;;;;;;;4.53;2.53;;;;;;;7.72;100.00;92788.34;2132721;27;20030;-71
2022/09/13 02:03:54;;;;;;;5.43;2.83;;;;;;;7.62;100.00;92791.19;2139169;27;20105;-69
2022/09/13 02:05:02;;;;;;;4.93;2.70;;;;;;;7.66;100.00;92791.88;2129310;27;20095;-70
2022/09/13 02:06:11;;;;;;;3.35;2.42;;;;;;;7.69;100.00;92785.75;2131222;27;20034;-69
2022/09/13 02:07:23;;;;;;;3.92;2.70;;;;;;;7.72;100.00;92784.94;2130134;27;20030;-69
2022/09/13 02:08:41;;;;;;;3.80;2.50;;;;;;;7.70;100.00;92789.91;2132605;27;20068;-69
2022/09/13 02:09:47;;;;;;;3.25;2.42;;;;;;;7.71;100.00;92786.84;2139150;27;20134;-70
2022/09/13 02:11:05;;;;;;;2.88;2.45;;;;;;;7.68;100.00;92787.66;2138704;27;20082;-70
2022/09/13 02:12:27;;;;;;;5.50;3.15;;;;;;;7.77;100.00;92784.47;2129997;27;20430;-70
2022/09/13 02:15:33;;;;;;;;;;;;;;;7.81;100.00;92785.16;2147460;27;20542;-69
2022/09/13 02:17:02;;;;;;;3.28;2.25;;;;;;;7.85;100.00;92787.75;2146434;27;19921;-71
2022/09/13 02:18:08;;;;;;;3.38;2.45;;;;;;;7.85;100.00;92790.44;2146997;27;20037;-71
2022/09/13 02:19:18;;;;;;;4.65;2.63;;;;;;;7.85;100.00;92790.44;2146626;27;20038;-70
2022/09/13 02:20:29;;;;;;;4.63;2.53;;;;;;;7.81;100.00;92782.50;2146804;27;20371;-71
2022/09/13 02:21:38;;;;;;;10.57;2.90;;;;;;;7.82;100.00;92782.09;2146499;27;20022;-70
2022/09/13 02:22:45;;;;;;;6.72;2.90;;;;;;;7.75;100.00;92792.09;2146493;27;20026;-71
2022/09/13 02:23:50;;;;;;;3.75;2.58;;;;;;;7.80;100.00;92794.31;2142199;27;20037;-71
2022/09/13 02:24:58;;;;;;;6.30;2.80;;;;;;;7.82;100.00;92795.41;2137806;27;20467;-72
2022/09/13 02:26:03;;;;;;;4.40;2.60;;;;;;;7.86;100.00;92795.34;2137554;27;20521;-71
2022/09/13 02:27:12;;;;;;;6.10;3.10;;;;;;;7.70;100.00;92805.88;2137960;27;20452;-69
2022/09/13 02:28:19;;;;;;;7.88;3.10;;;;;;;7.74;100.00;92804.66;2138216;27;20598;-70
2022/09/13 02:29:23;;;;;;;5.28;2.67;;;;;;;7.68;100.00;92803.63;2137828;27;20456;-71
2022/09/13 02:30:27;;;;;;;5.45;2.47;;;;;;;7.69;100.00;92805.13;2128884;27;20476;-72
2022/09/13 02:31:43;;;;;;;7.15;3.00;;;;;;;7.60;100.00;92806.81;2129512;27;20064;-72
2022/09/13 02:32:58;;;;;;;3.22;2.45;;;;;;;7.63;100.00;92804.06;2137945;27;20034;-71
2022/09/13 02:34:03;;;;;;;3.80;2.40;;;;;;;7.59;100.00;92798.06;2139739;27;20030;-71
2022/09/13 02:35:12;;;;;;;6.47;2.83;;;;;;;7.56;100.00;92798.88;2146274;27;20037;-71
2022/09/13 02:36:22;;;;;;;3.60;2.70;;;;;;;7.57;100.00;92793.16;2146431;27;20467;-72
2022/09/13 02:37:26;;;;;;;3.47;2.80;;;;;;;7.64;100.00;92797.63;2146173;27;20029;-72
2022/09/13 02:38:43;;;;;;;3.35;2.80;;;;;;;7.58;100.00;92799.22;2146881;27;20026;-72
2022/09/13 02:39:52;;;;;;;6.00;3.03;;;;;;;7.55;100.00;92803.44;2139043;27;20481;-71
2022/09/13 02:41:00;;;;;;;7.32;3.20;;;;;;;7.48;100.00;92800.88;2138003;27;20498;-73
2022/09/13 02:42:13;;;;;;;7.28;2.60;;;;;;;7.53;100.00;92805.00;2137794;27;20031;-71
2022/09/13 02:43:21;;;;;;;6.32;2.60;;;;;;;7.52;100.00;92801.59;2137631;27;20050;-70
2022/09/13 02:44:34;;;;;;;3.92;2.60;;;;;;;7.54;100.00;92793.94;2139378;27;20025;-71
2022/09/13 02:45:48;;;;;;;8.45;2.95;;;;;;;7.50;100.00;92795.91;2146624;27;20024;-71
2022/09/13 02:47:06;;;;;;;6.63;2.70;;;;;;;7.47;100.00;92791.41;2146800;27;20022;-70
2022/09/13 02:48:33;;;;;;;6.50;2.70;;;;;;;7.43;100.00;92792.63;2146418;27;20075;-70
2022/09/13 02:49:51;;;;;;;4.72;2.60;;;;;;;7.47;100.00;92788.00;2144161;27;20030;-71
2022/09/13 02:51:24;;;;;;;6.85;2.53;;;;;;;7.55;100.00;92781.41;2128522;27;20038;-71
2022/09/13 02:52:34;;;;;;;4.95;2.30;;;;;;;7.58;100.00;92780.59;2118502;27;20045;-71
2022/09/13 02:53:42;;;;;;;3.30;2.38;;;;;;;7.57;100.00;92779.84;2127952;27;20395;-71
2022/09/13 02:54:53;;;;;;;4.28;2.65;;;;;;;7.53;100.00;92781.81;2121935;27;20015;-73
2022/09/13 02:56:22;;;;;;;5.18;2.47;;;;;;;7.54;100.00;92780.66;2137329;27;20443;-71
2022/09/13 02:57:31;;;;;;;8.25;2.40;;;;;;;7.57;100.00;92787.81;2138105;27;20054;-70
2022/09/13 02:58:42;;;;;;;4.20;2.45;;;;;;;7.57;100.00;92779.09;2137393;27;20025;-71
2022/09/13 02:59:46;;;;;;;3.42;2.22;;;;;;;7.40;100.00;92780.13;2137772;27;20087;-72
2022/09/13 03:00:47;;;;;;;6.38;3.13;;;;;;;7.46;100.00;92783.81;2137757;27;20026;-72
2022/09/13 03:02:00;;;;;;;4.95;2.65;;;;;;;7.47;100.00;92783.44;2137685;27;20026;-74
2022/09/13 03:03:04;;;;;;;6.40;2.60;;;;;;;7.51;100.00;92778.06;2137942;27;20026;-72
2022/09/13 03:04:06;;;;;;;6.80;2.33;;;;;;;7.46;100.00;92787.25;2137422;27;20053;-72
2022/09/13 03:05:07;;;;;;;3.25;2.40;;;;;;;7.37;100.00;92778.25;2137728;27;20053;-71
2022/09/13 03:06:08;;;;;;;4.22;2.67;;;;;;;7.40;100.00;92780.88;2137431;27;20025;-73
2022/09/13 03:07:13;;;;;;;7.80;2.60;;;;;;;7.38;100.00;92774.47;2137303;27;20037;-71
2022/09/13 03:08:16;;;;;;;3.22;2.28;;;;;;;7.38;100.00;92777.88;2137698;27;20103;-71
2022/09/13 03:09:19;;;;;;;7.88;2.22;;;;;;;7.46;100.00;92781.94;2137480;27;20022;-74
2022/09/13 03:10:22;;;;;;;3.83;2.55;;;;;;;7.46;100.00;92781.94;2137373;27;20042;-72
2022/09/13 03:11:43;;;;;;;6.38;2.40;;;;;;;7.50;100.00;92779.94;2137200;27;20026;-73
2022/09/13 03:13:14;;;;;;;2.95;2.35;;;;;;;7.44;100.00;92781.56;2137628;27;20379;-72
2022/09/13 03:14:43;;;;;;;2.72;2.53;;;;;;;7.48;100.00;92782.28;2137493;27;20109;-74
2022/09/13 03:15:58;;;;;;;5.93;2.13;;;;;;;7.50;100.00;92781.84;2143519;27;20042;-72
2022/09/13 03:17:17;;;;;;;4.35;2.30;;;;;;;7.40;100.00;92783.53;2137530;27;20117;-71
2022/09/13 03:18:30;;;;;;;1.92;1.80;;;;;;;7.47;100.00;92778.13;2137889;27;20041;-72
2022/09/13 03:20:09;;;;;;;1.85;1.75;;;;;;;7.42;100.00;92781.25;2127895;27;20034;-73
2022/09/13 03:21:32;;;;;;;5.32;1.75;;;;;;;7.41;100.00;92778.97;2098225;28;20032;-72
2022/09/13 03:22:52;;;;;;;3.90;1.95;;;;;;;7.39;100.00;92778.63;2137334;27;20022;-72
2022/09/13 03:24:17;;;;;;;5.35;1.73;;;;;;;7.29;100.00;92777.63;2137643;27;20027;-71
2022/09/13 03:25:55;;;;;;;2.15;1.98;;;;;;;7.29;100.00;92775.72;2137276;27;20069;-72
2022/09/13 03:27:08;;;;;;;2.42;1.65;;;;;;;7.28;100.00;92771.53;2136773;27;20019;-72
2022/09/13 03:28:29;;;;;;;4.57;1.88;;;;;;;7.36;100.00;92768.78;2140246;27;20057;-72
2022/09/13 03:29:54;;;;;;;1.98;1.70;;;;;;;7.40;100.00;92777.47;2140484;27;20030;-70
2022/09/13 03:31:17;;;;;;;2.72;1.90;;;;;;;7.34;100.00;92758.56;2140139;27;20033;-73
2022/09/13 03:32:34;;;;;;;3.63;1.60;;;;;;;7.26;100.00;92765.88;2139996;27;20026;-71
2022/09/13 03:33:53;;;;;;;7.85;2.25;;;;;;;7.25;100.00;92758.31;2140431;27;20337;-71
2022/09/13 03:35:06;;;;;;;4.55;1.80;;;;;;;7.24;100.00;92757.56;2140275;27;20026;-71
2022/09/13 03:36:35;;;;;;;4.55;2.47;;;;;;;7.32;100.00;92758.19;2140288;27;20038;-71
2022/09/13 03:38:04;;;;;;;2.80;1.63;;;;;;;7.42;100.00;92761.84;2088407;28;20076;-71
2022/09/13 03:39:13;;;;;;;2.83;1.95;;;;;;;7.36;100.00;92766.88;2131562;27;20032;-71
2022/09/13 03:40:31;;;;;;;2.38;2.13;;;;;;;7.39;100.00;92763.41;2131653;27;20421;-71
2022/09/13 03:41:40;;;;;;;5.63;1.90;;;;;;;7.36;100.00;92766.88;2121878;27;20019;-72
2022/09/13 03:42:46;;;;;;;2.28;2.00;;;;;;;7.35;100.00;92764.63;2123442;27;20528;-73
2022/09/13 03:43:52;;;;;;;1.90;1.65;;;;;;;7.39;100.00;92771.41;2131249;27;20023;-71
2022/09/13 03:44:56;;;;;;;3.85;1.88;;;;;;;7.32;100.00;92763.53;2131192;27;20019;-71
2022/09/13 03:46:03;;;;;;;2.80;2.28;;;;;;;7.28;100.00;92762.81;2131473;27;20038;-71
2022/09/13 03:47:06;;;;;;;3.88;1.73;;;;;;;7.28;100.00;92754.84;2133097;27;20079;-73
2022/09/13 03:48:11;;;;;;;1.98;1.73;;;;;;;7.27;100.00;92756.00;2140274;27;20034;-71
2022/09/13 03:49:18;;;;;;;3.22;2.00;;;;;;;7.26;100.00;92755.25;2140164;27;20026;-74
2022/09/13 03:50:21;;;;;;;3.03;2.20;;;;;;;7.30;100.00;92761.28;2140321;27;20471;-71
2022/09/13 03:51:22;;;;;;;2.30;2.10;;;;;;;7.24;100.00;92759.47;2139989;27;20476;-72
2022/09/13 03:52:23;;;;;;;2.97;1.83;;;;;;;7.28;100.00;92755.59;2135936;27;20477;-71
2022/09/13 03:53:27;;;;;;;6.75;2.00;;;;;;;7.31;100.00;92756.72;2131580;27;20031;-71
2022/09/13 03:54:31;;;;;;;12.10;2.50;;;;;;;7.27;100.00;92763.97;2131638;27;20467;-74
2022/09/13 03:55:34;;;;;;;2.83;1.83;;;;;;;7.25;100.00;92760.97;2131603;27;20109;-71
2022/09/13 03:56:35;;;;;;;2.85;2.00;;;;;;;7.22;100.00;92767.09;2122645;27;20026;-72
2022/09/13 03:57:35;;;;;;;3.95;2.10;;;;;;;7.27;100.00;92767.38;2124995;27;20023;-71
2022/09/13 03:58:36;;;;;;;4.47;1.92;;;;;;;7.23;100.00;92765.94;2139803;27;20034;-70
2022/09/13 03:59:42;;;;;;;5.22;2.33;;;;;;;7.17;100.00;92768.31;2140230;27;20022;-71
2022/09/13 04:00:44;;;;;;;2.55;1.90;;;;;;;7.22;100.00;92769.75;2140069;27;20034;-71
2022/09/13 04:01:45;;;;;;;5.78;2.00;;;;;;;7.26;100.00;92765.13;2140373;27;20026;-72
2022/09/13 04:02:46;;;;;;;2.53;2.00;;;;;;;7.19;100.00;92768.63;2136363;27;20037;-72
2022/09/13 04:03:47;;;;;;;2.30;1.70;;;;;;;7.20;100.00;92769.38;2131482;27;20378;-73
2022/09/13 04:04:48;;;;;;;2.08;1.80;;;;;;;7.18;100.00;92774.38;2131479;27;20030;-74
2022/09/13 04:05:49;;;;;;;2.40;2.20;;;;;;;7.18;100.00;92766.41;2131430;27;20020;-75
2022/09/13 04:06:50;;;;;;;3.15;2.20;;;;;;;7.20;100.00;92766.72;2131665;27;20048;-72
2022/09/13 04:07:52;;;;;;;3.95;2.03;;;;;;;7.20;100.00;92766.72;2132874;27;20027;-72
2022/09/13 04:08:53;;;;;;;3.38;1.90;;;;;;;7.09;100.00;92763.50;2139323;27;20038;-71
2022/09/13 04:09:54;;;;;;;2.00;1.90;;;;;;;7.11;100.00;92763.84;2140103;27;20026;-72
2022/09/13 04:10:55;;;;;;;3.80;1.85;;;;;;;7.16;100.00;92756.19;2139913;27;20524;-72
2022/09/13 04:11:56;;;;;;;2.13;1.92;;;;;;;7.18;100.00;92763.75;2140232;27;20041;-71
2022/09/13 04:13:01;;;;;;;2.83;1.80;;;;;;;7.20;100.00;92766.72;2138046;27;20612;-71
2022/09/13 04:14:03;;;;;;;2.20;1.90;;;;;;;7.21;100.00;92766.34;2131057;27;20034;-71
2022/09/13 04:15:05;;;;;;;2.78;1.83;;;;;;;7.19;100.00;92762.56;2131421;27;20039;-71
2022/09/13 04:16:07;;;;;;;3.10;1.83;;;;;;;7.19;100.00;92765.97;2130599;27;20117;-72
2022/09/13 04:17:08;;;;;;;10.25;2.63;;;;;;;7.16;100.00;92758.84;2130950;27;20031;-72
2022/09/13 04:18:10;;;;;;;2.67;1.77;;;;;;;7.14;100.00;92755.81;2132278;27;20034;-70
2022/09/13 04:19:11;;;;;;;3.70;2.00;;;;;;;7.16;100.00;92763.41;2139866;27;20018;-71
2022/09/13 04:20:11;;;;;;;1.90;1.65;;;;;;;7.11;100.00;92766.50;2130585;27;20445;-71
2022/09/13 04:21:12;;;;;;;2.90;2.08;;;;;;;7.15;100.00;92765.28;2130759;27;20111;-70
2022/09/13 04:22:14;;;;;;;3.50;1.73;;;;;;;7.17;100.00;92764.91;2139943;27;20033;-71
2022/09/13 04:23:15;;;;;;;2.65;2.10;;;;;;;7.18;100.00;92769.81;2139495;27;20026;-72
2022/09/13 04:24:17;;;;;;;3.33;1.90;;;;;;;7.14;100.00;92771.00;2131121;27;20050;-71
2022/09/13 04:25:19;;;;;;;3.20;2.03;;;;;;;7.14;100.00;92766.44;2131235;27;20031;-71
2022/09/13 04:26:20;;;;;;;2.28;2.00;;;;;;;7.10;100.00;92771.06;2131393;27;20064;-71
2022/09/13 04:27:22;;;;;;;3.33;1.73;;;;;;;7.16;100.00;92774.03;2131239;27;20026;-70
2022/09/13 04:28:23;;;;;;;3.53;1.50;;;;;;;7.14;100.00;92771.75;2132969;27;20679;-70
2022/09/13 04:29:25;;;;;;;2.15;1.77;;;;;;;7.17;100.00;92770.97;2139772;27;20033;-71
2022/09/13 04:30:27;;;;;;;3.70;1.83;;;;;;;7.14;100.00;92773.66;2129152;27;20039;-73
2022/09/13 04:31:28;;;;;;;3.42;1.75;;;;;;;7.14;100.00;92773.66;2128614;27;20015;-71
2022/09/13 04:32:29;;;;;;;2.08;1.85;;;;;;;6.97;100.00;92768.19;2138424;27;20355;-73
2022/09/13 04:33:30;;;;;;;7.63;2.65;;;;;;;6.98;100.00;92767.06;2138158;27;20127;-72
2022/09/13 04:34:31;;;;;;;2.75;1.75;;;;;;;6.99;100.00;92773.88;2138987;27;20585;-73
2022/09/13 04:35:32;;;;;;;3.40;2.20;;;;;;;7.00;100.00;92767.41;2139214;27;20030;-73
2022/09/13 04:36:33;;;;;;;3.50;1.92;;;;;;;7.04;100.00;92768.09;2139022;27;20026;-71
2022/09/13 04:37:34;;;;;;;2.63;2.15;;;;;;;7.07;100.00;92771.88;2134893;27;20215;-72
2022/09/13 04:38:36;;;;;;;4.88;1.95;;;;;;;7.10;100.00;92768.41;2138010;27;20105;-73
2022/09/13 04:39:37;;;;;;;1.90;1.60;;;;;;;7.12;100.00;92762.69;2123709;27;20018;-72
2022/09/13 04:40:38;;;;;;;2.35;1.90;;;;;;;7.10;100.00;92762.34;2125367;27;20015;-73
2022/09/13 04:41:40;;;;;;;4.18;2.42;;;;;;;7.11;100.00;92769.16;2138353;27;20163;-72
2022/09/13 04:42:43;;;;;;;2.00;1.80;;;;;;;7.08;100.00;92768.06;2130276;27;20031;-72
2022/09/13 04:43:49;;;;;;;3.20;1.83;;;;;;;7.10;100.00;92770.31;2130675;27;20023;-71
2022/09/13 04:44:50;;;;;;;1.98;1.80;;;;;;;7.11;100.00;92767.25;2138243;27;20029;-72
2022/09/13 04:45:51;;;;;;;10.50;2.28;;;;;;;7.01;100.00;92779.53;2134091;27;20467;-72
2022/09/13 04:46:51;;;;;;;2.85;2.00;;;;;;;6.99;100.00;92770.47;2132912;27;20017;-71
2022/09/13 04:47:55;;;;;;;2.75;1.83;;;;;;;7.08;100.00;92776.03;2138714;27;20364;-73
2022/09/13 04:48:57;;;;;;;2.15;1.77;;;;;;;7.13;100.00;92772.91;2139162;27;20488;-71
2022/09/13 04:49:58;;;;;;;3.28;1.90;;;;;;;7.15;100.00;92777.81;2138944;27;20025;-71
2022/09/13 04:51:03;;;;;;;7.80;2.30;;;;;;;7.19;100.00;92776.63;2139006;27;20045;-71
2022/09/13 04:52:04;;;;;;;3.33;1.80;;;;;;;7.10;100.00;92781.69;2139035;27;20531;-72
2022/09/13 04:53:05;;;;;;;6.90;1.90;;;;;;;7.19;100.00;92778.53;2134109;27;20038;-71
2022/09/13 04:54:09;;;;;;;2.15;1.95;;;;;;;7.23;100.00;92784.53;2131707;27;20029;-71
2022/09/13 04:55:10;;;;;;;8.00;2.00;;;;;;;7.24;100.00;92776.19;2139557;27;20105;-71
2022/09/13 04:56:12;;;;;;;2.42;2.05;;;;;;;7.24;100.00;92783.38;2139444;27;20022;-71
2022/09/13 04:57:15;;;;;;;3.42;1.83;;;;;;;7.28;100.00;92781.44;2139112;27;20030;-71
2022/09/13 04:58:16;;;;;;;4.20;1.77;;;;;;;7.16;100.00;92776.69;2139869;27;20428;-71
2022/09/13 04:59:17;;;;;;;6.28;1.95;;;;;;;7.16;100.00;92780.09;2137356;27;20034;-70
2022/09/13 05:00:18;;;;;;;2.42;2.22;;;;;;;7.11;100.00;92780.53;2122631;27;20027;-72
2022/09/13 05:01:22;;;;;;;2.25;1.85;;;;;;;7.21;100.00;92789.53;2119185;27;20077;-73
2022/09/13 05:02:23;;;;;;;3.10;2.20;;;;;;;7.21;100.00;92778.88;2130560;27;20018;-74
2022/09/13 05:03:24;;;;;;;3.97;2.30;;;;;;;7.18;100.00;92785.00;2139199;27;20109;-72
2022/09/13 05:04:25;;;;;;;4.88;2.22;;;;;;;7.19;100.00;92775.88;2139510;27;20337;-70
2022/09/13 05:05:27;;;;;;;3.10;2.05;;;;;;;7.23;100.00;92787.19;2131150;27;20023;-71
2022/09/13 05:06:29;;;;;;;6.95;2.38;;;;;;;7.21;100.00;92789.53;2130877;27;20117;-71
2022/09/13 05:07:30;;;;;;;5.60;2.20;;;;;;;7.15;100.00;92783.88;2121551;27;20023;-73
2022/09/13 05:08:31;;;;;;;2.22;1.77;;;;;;;7.21;100.00;92792.19;2121687;27;20023;-71
2022/09/13 05:09:32;;;;;;;2.92;2.20;;;;;;;7.21;100.00;92781.56;2130471;27;20735;-71
2022/09/13 05:10:33;;;;;;;3.20;1.80;;;;;;;7.20;100.00;92782.69;2137533;27;20026;-72
2022/09/13 05:11:34;;;;;;;2.05;1.90;;;;;;;7.17;100.00;92789.56;2139501;27;20086;-72
2022/09/13 05:12:35;;;;;;;2.25;1.77;;;;;;;7.18;100.00;92787.66;2136054;27;20022;-74
2022/09/13 05:13:36;;;;;;;2.33;1.92;;;;;;;7.24;100.00;92791.34;2138013;27;20103;-71
2022/09/13 05:14:37;;;;;;;5.63;1.98;;;;;;;7.20;100.00;92793.31;2136199;27;20025;-72
2022/09/13 05:15:38;;;;;;;2.13;1.80;;;;;;;7.19;100.00;92784.59;2138125;27;20077;-73
2022/09/13 05:16:39;;;;;;;4.10;2.40;;;;;;;7.18;100.00;92796.38;2139386;27;20033;-72
2022/09/13 05:17:40;;;;;;;2.22;2.08;;;;;;;7.13;100.00;92791.53;2139496;27;20029;-72
2022/09/13 05:18:41;;;;;;;3.88;1.88;;;;;;;7.15;100.00;92783.88;2139195;27;20440;-72
2022/09/13 05:19:42;;;;;;;2.80;1.98;;;;;;;7.20;100.00;92795.97;2139421;27;20030;-71
2022/09/13 05:20:43;;;;;;;2.45;2.25;;;;;;;7.29;100.00;92782.94;2138279;27;20462;-73